New Florence, MO

2:42 AM CST on February 14, 2016 (GMT -0600)
Fry Subdivision | | Change Station
CLOSE
Current Station
Personal Weather Station
Location: New Florence, MO
Elevation: 850 ft
Nearby Weather Stations
Active Advisory: Winter Weather Advisory

Elev 850 ft 38.91 °N, 91.44 °W | Updated 12 minutes ago

Overcast
Overcast
21.0 °F
Feels Like 21 °F
N
0.0
Wind Variable Wind from SSE

Today
High -- | Low -- °F
--% Chance of Precip.
Yesterday
High -- | Low -- °F
Precip. -- in
Pressure 30.31 in
Visibility 10.0 miles
Clouds Overcast 4400 ft
Windchill 21 °F
Dew Point 10 °F
Humidity 61%
Rainfall 0.00 in
Snow Depth Not available.
6:59 AM 5:41 PM
Waxing Crescent, 39% visible
METAR KFYG 140835Z AUTO 13009KT 10SM OVC044 M04/M14 A3031 RMK AO2
Pressure 30.31 in
Visibility 10.0 miles
Clouds Overcast 4400 ft
Windchill 21 °F
Dew Point 10 °F
Humidity 61%
Rainfall 0.00 in
Snow Depth Not available.
6:59 AM 5:41 PM
Waxing Crescent, 39% visible
METAR KFYG 140835Z AUTO 13009KT 10SM OVC044 M04/M14 A3031 RMK AO2

10-Day Weather Forecast

Almanac

Astronomy

Feb. 14, 2016 Rise Set
Actual Time
Civil Twilight
Nautical Twilight
Astronomical Twilight
Moon
Length of Visible Light
Length of Day
Tomorrow will be .
, % of the Moon is Illuminated

Today's Extremes

State Highs State Lows

Community

WunderPhotos

Upload Photos

1,892,763 photos uploaded!

WunderBlog® & News

Nearby

Air Quality

  Air Quality AQ Index Pollutant
Not available.

Snow Depth

Station Depth Elevation

Earthquake Activity

City Distance Mag. Time & Date
Minimum magnitude displayed is 2.5.

Coastal Water Temperatures

Place Temperature

Stations

Nearby Weather Stations

Station Location Temp. Windchill Dew Point Humidity Wind Precip. Elev Updated Type
                   

Watches & Warnings

Winter Weather Advisory
Issued: 11:40 PM CST Feb. 13, 2016 – National Weather Service

... Winter Weather Advisory remains in effect until 6 PM CST
Sunday...

* timing... snow will become widespread by late tonight with the
best snowfall accumulation rates expected during Sunday morning.
Snow is then expected to taper off to flurries or light freezing
drizzle Sunday afternoon.

* Accumulations... snow accumulation of 1 to 3 inches are
expected... along with a light glazing of ice.

* Winds... winds will be out of the southeast 5 to 15 mph.

* Impacts... the wintry precipitation will result in hazardous
travel conditions... especially on bridges... overpasses... and
untreated roads. Parking lots and sidewalks will become
slippery as well.

Precautionary/preparedness actions...

A Winter Weather Advisory means that up to 5 inches of snow is
expected across the advisory area. Roads may rapidly become
slippery once the snow begins... so motorists should plan for a
slower than normal trip. Be especially alert when approaching
bridges... overpasses... and curves.



Britt